Time;durP1;ratioP1;P1;durP2;ratioP2;P2;SDS_P1;SDS_P2;PMS_P1;PMS_P2;Temp;Humidity;BMP_temperature;BMP_pressure;BME280_temperature;BME280_humidity;BME280_pressure;Samples;Min_cycle;Max_cycle;Signal;HPM_P1;HPM_P2
2022/07/16 00:03:48;;;;;;;5.17;1.60;;;;;;;16.65;57.29;100729.78;5120587;28;20449;-63
2022/07/16 00:06:14;;;;;;;3.20;1.70;;;;;;;16.54;57.42;100729.09;5122652;28;20469;-63
2022/07/16 00:08:42;;;;;;;2.00;1.20;;;;;;;16.36;58.00;100731.09;5123845;28;20442;-63
2022/07/16 00:11:09;;;;;;;3.30;2.00;;;;;;;16.29;59.32;100730.06;5123310;28;20526;-63
2022/07/16 00:13:36;;;;;;;3.70;1.87;;;;;;;16.19;59.38;100724.81;5124565;28;20450;-63
2022/07/16 00:16:02;;;;;;;3.23;1.40;;;;;;;16.08;59.60;100722.44;5122455;28;20481;-62
2022/07/16 00:21:13;;;;;;;6.80;1.40;;;;;;;15.91;60.14;100718.84;5122979;28;20476;-63
2022/07/16 00:23:40;;;;;;;3.00;2.50;;;;;;;15.87;60.36;100720.19;5123964;28;20450;-63
2022/07/16 00:26:08;;;;;;;2.83;1.33;;;;;;;15.86;60.12;100724.72;5123128;28;20481;-63
2022/07/16 00:28:34;;;;;;;2.20;1.83;;;;;;;15.85;60.73;100725.75;5123770;28;20455;-63
2022/07/16 00:31:01;;;;;;;4.90;1.90;;;;;;;15.88;60.74;100713.78;5122799;28;20493;-62
2022/07/16 00:33:28;;;;;;;3.63;1.30;;;;;;;15.95;60.46;100712.97;5123749;28;20970;-62
2022/07/16 00:35:54;;;;;;;2.50;1.20;;;;;;;15.98;60.32;100709.94;5123412;28;20500;-63
2022/07/16 00:38:21;;;;;;;4.90;1.80;;;;;;;15.94;60.50;100713.13;5123605;28;20477;-61
2022/07/16 00:40:48;;;;;;;3.60;1.40;;;;;;;15.82;60.39;100708.03;5122893;28;20489;-62
2022/07/16 00:43:16;;;;;;;2.43;1.07;;;;;;;15.94;60.17;100710.44;5123842;28;20446;-62
2022/07/16 00:45:43;;;;;;;1.77;1.43;;;;;;;16.10;59.74;100712.31;5121863;28;20523;-62
2022/07/16 00:48:11;;;;;;;2.60;1.40;;;;;;;16.21;59.72;100712.00;5123280;28;20431;-62
2022/07/16 00:50:39;;;;;;;3.80;1.53;;;;;;;16.29;59.29;100705.78;5122340;28;20474;-62
2022/07/16 00:53:06;;;;;;;2.23;1.40;;;;;;;16.35;59.08;100703.28;5123226;28;20465;-62
2022/07/16 00:55:33;;;;;;;2.97;1.50;;;;;;;16.45;58.95;100705.78;5122247;28;20843;-62
2022/07/16 00:58:00;;;;;;;3.53;1.57;;;;;;;16.52;59.07;100701.41;5123628;28;20433;-62
2022/07/16 01:00:28;;;;;;;3.70;1.53;;;;;;;16.59;59.01;100708.84;5121846;28;20993;-62
2022/07/16 01:02:55;;;;;;;5.10;1.50;;;;;;;16.62;59.04;100703.09;5123614;28;20446;-62
2022/07/16 01:05:22;;;;;;;2.10;1.20;;;;;;;16.63;58.73;100705.63;5122430;28;20491;-62
2022/07/16 01:07:49;;;;;;;2.40;1.70;;;;;;;16.64;59.14;100704.59;5123051;28;20426;-61
2022/07/16 01:10:18;;;;;;;1.30;1.20;;;;;;;16.69;59.05;100696.84;5122856;28;20473;-62
2022/07/16 01:12:46;;;;;;;4.83;1.77;;;;;;;16.65;59.06;100702.78;5123057;28;20462;-63
2022/07/16 01:15:13;;;;;;;2.87;1.97;;;;;;;16.63;59.45;100691.28;5121672;28;20446;-63
2022/07/16 01:17:41;;;;;;;2.80;1.87;;;;;;;16.69;59.50;100694.16;5120787;28;20457;-63
2022/07/16 01:20:09;;;;;;;3.47;2.10;;;;;;;16.78;59.31;100689.59;5122186;28;20454;-62
2022/07/16 01:22:35;;;;;;;7.10;1.90;;;;;;;16.85;58.95;100698.72;5122528;28;20442;-62
2022/07/16 01:25:04;;;;;;;5.60;2.10;;;;;;;16.85;58.78;100695.19;5122481;28;20464;-62
2022/07/16 01:27:30;;;;;;;4.73;1.70;;;;;;;16.81;59.01;100694.66;5122317;28;21067;-62
2022/07/16 01:29:57;;;;;;;3.13;1.80;;;;;;;16.85;58.58;100693.31;5122432;28;20518;-62
2022/07/16 01:32:24;;;;;;;5.00;1.77;;;;;;;16.90;58.45;100693.66;5121561;28;20507;-62
2022/07/16 01:34:50;;;;;;;2.20;2.00;;;;;;;16.95;58.29;100695.84;5122060;28;20485;-62
2022/07/16 01:37:17;;;;;;;4.80;2.30;;;;;;;16.98;58.22;100686.53;5121507;28;20482;-63
2022/07/16 01:39:44;;;;;;;6.30;1.77;;;;;;;17.03;58.08;100686.88;5122222;28;20442;-63
2022/07/16 01:42:12;;;;;;;4.27;1.60;;;;;;;17.06;57.83;100691.94;5121483;28;21072;-63
2022/07/16 01:44:39;;;;;;;3.47;1.60;;;;;;;17.15;57.62;100684.66;5122602;28;20464;-63
2022/07/16 01:47:07;;;;;;;2.63;2.27;;;;;;;17.11;57.68;100682.28;5120197;28;20558;-64
2022/07/16 01:49:35;;;;;;;2.33;2.00;;;;;;;17.07;57.23;100682.81;5122787;28;20430;-64
2022/07/16 01:52:06;;;;;;;3.23;1.73;;;;;;;17.15;57.01;100676.53;5121255;28;20477;-64
2022/07/16 01:54:33;;;;;;;2.20;1.70;;;;;;;17.10;56.92;100671.69;5121843;28;20438;-64
2022/07/16 01:57:00;;;;;;;2.70;1.70;;;;;;;17.05;56.95;100677.59;5121178;28;20479;-64
2022/07/16 01:59:28;;;;;;;5.50;2.20;;;;;;;17.18;56.76;100674.34;5122273;28;20454;-64
2022/07/16 02:01:55;;;;;;;7.33;2.00;;;;;;;17.11;56.89;100670.66;5119823;28;20493;-69
2022/07/16 02:04:21;;;;;;;4.23;2.10;;;;;;;17.17;56.63;100669.97;5121684;28;20513;-67
2022/07/16 02:06:48;;;;;;;3.00;2.40;;;;;;;17.12;56.54;100675.06;5120764;28;20482;-67
2022/07/16 02:09:15;;;;;;;4.53;1.90;;;;;;;17.18;56.56;100671.63;5121662;28;20470;-68
2022/07/16 02:11:41;;;;;;;3.37;1.60;;;;;;;17.21;56.08;100671.28;5121211;28;20513;-69
2022/07/16 02:14:08;;;;;;;4.20;2.33;;;;;;;17.22;56.04;100674.84;5121741;28;20459;-69
2022/07/16 02:16:36;;;;;;;3.93;1.83;;;;;;;17.22;55.98;100674.84;5120222;28;20490;-68
2022/07/16 02:19:03;;;;;;;2.63;1.80;;;;;;;17.26;56.42;100679.72;5121295;28;20435;-68
2022/07/16 02:21:30;;;;;;;4.00;2.27;;;;;;;17.24;56.26;100676.38;5120844;28;20470;-67
2022/07/16 02:23:57;;;;;;;4.53;2.33;;;;;;;17.19;56.62;100667.09;5121623;28;20500;-68
2022/07/16 02:26:24;;;;;;;4.20;2.20;;;;;;;17.29;56.55;100673.13;5121365;28;20501;-68
2022/07/16 02:28:50;;;;;;;4.30;2.23;;;;;;;17.22;56.98;100666.72;5120406;28;20442;-68
2022/07/16 02:31:17;;;;;;;9.93;2.37;;;;;;;17.24;56.97;100672.81;5118803;28;20509;-68
2022/07/16 02:33:45;;;;;;;7.73;2.63;;;;;;;17.18;56.63;100676.22;5119834;28;20442;-69
2022/07/16 02:36:12;;;;;;;7.40;2.40;;;;;;;17.21;56.67;100671.28;5118304;28;20481;-66
2022/07/16 02:38:38;;;;;;;2.70;2.23;;;;;;;17.18;56.97;100674.34;5120839;28;20492;-66
2022/07/16 02:41:05;;;;;;;4.57;2.20;;;;;;;17.14;56.86;100673.00;5120335;28;20497;-65
2022/07/16 02:43:32;;;;;;;2.60;2.40;;;;;;;17.13;57.15;100672.19;5120869;28;20825;-65
2022/07/16 02:45:59;;;;;;;3.90;2.40;;;;;;;17.15;56.99;100661.19;5118660;28;20473;-65
2022/07/16 02:48:26;;;;;;;6.37;2.13;;;;;;;17.17;56.89;100666.41;5121242;28;20807;-66
2022/07/16 02:50:54;;;;;;;4.43;2.10;;;;;;;17.08;56.82;100665.59;5121297;28;20539;-65
2022/07/16 02:53:20;;;;;;;4.03;2.07;;;;;;;17.04;57.29;100658.84;5121375;28;21041;-66
2022/07/16 02:55:47;;;;;;;5.30;2.50;;;;;;;17.08;57.23;100665.59;5120349;28;20501;-65
2022/07/16 02:58:14;;;;;;;4.87;1.80;;;;;;;17.09;56.95;100656.47;5121401;28;21005;-65
2022/07/16 03:00:40;;;;;;;4.43;2.33;;;;;;;17.17;56.63;100658.28;5120212;28;20458;-65
2022/07/16 03:03:07;;;;;;;6.90;2.17;;;;;;;17.05;56.51;100655.97;5121146;28;20493;-65
2022/07/16 03:05:34;;;;;;;5.20;2.00;;;;;;;17.20;56.39;100650.69;5120963;28;20474;-65
2022/07/16 03:08:02;;;;;;;5.23;2.27;;;;;;;17.20;56.56;100658.78;5121140;28;20434;-65
2022/07/16 03:10:29;;;;;;;3.80;2.57;;;;;;;17.16;56.11;100653.94;5120967;28;20469;-65
2022/07/16 03:12:55;;;;;;;3.23;1.90;;;;;;;17.12;56.62;100656.13;5120918;28;20490;-65
2022/07/16 03:15:22;;;;;;;4.40;2.20;;;;;;;17.22;56.29;100645.97;5119755;28;20457;-66
2022/07/16 03:17:49;;;;;;;4.17;2.23;;;;;;;17.08;56.44;100650.25;5119577;28;20479;-66
2022/07/16 03:20:15;;;;;;;6.70;2.57;;;;;;;17.02;56.63;100653.63;5120232;28;20488;-65
2022/07/16 03:22:45;;;;;;;3.97;1.87;;;;;;;17.03;56.63;100658.03;5120768;28;20477;-65
2022/07/16 03:25:15;;;;;;;2.60;2.07;;;;;;;17.07;56.63;100658.50;5120532;28;20457;-65
2022/07/16 03:27:42;;;;;;;4.00;2.60;;;;;;;17.04;56.93;100653.44;5120364;28;20541;-65
2022/07/16 03:30:09;;;;;;;3.63;2.30;;;;;;;17.04;56.73;100648.06;5120764;28;20437;-65
2022/07/16 03:32:36;;;;;;;3.43;2.20;;;;;;;16.96;57.23;100656.16;5120582;28;20510;-65
2022/07/16 03:35:06;;;;;;;3.33;1.57;;;;;;;16.94;57.19;100654.50;5120714;28;20480;-66
2022/07/16 03:37:32;;;;;;;5.40;2.23;;;;;;;16.93;57.16;100652.81;5120016;28;20474;-66
2022/07/16 03:39:59;;;;;;;2.40;2.07;;;;;;;16.91;57.48;100662.09;5121630;28;20764;-66
2022/07/16 03:42:27;;;;;;;4.03;2.17;;;;;;;16.91;57.33;100662.09;5124471;28;20519;-66
2022/07/16 03:44:54;;;;;;;4.37;2.30;;;;;;;16.87;57.02;100658.91;5125010;28;20430;-66
2022/07/16 03:47:20;;;;;;;2.50;1.90;;;;;;;17.01;56.60;100648.38;5123102;28;20519;-66
2022/07/16 03:49:47;;;;;;;3.80;2.03;;;;;;;17.04;56.75;100657.00;5125380;28;20441;-67
2022/07/16 03:52:14;;;;;;;4.43;2.27;;;;;;;16.97;56.81;100656.00;5124080;28;20506;-64
2022/07/16 03:54:40;;;;;;;4.20;2.60;;;;;;;17.00;57.18;100646.72;5124743;28;20460;-65
2022/07/16 03:57:07;;;;;;;3.43;2.30;;;;;;;16.96;56.88;100667.84;5124198;28;20473;-64
2022/07/16 03:59:35;;;;;;;3.80;2.10;;;;;;;16.99;56.84;100658.53;5125116;28;20434;-65
2022/07/16 04:02:02;;;;;;;3.67;2.17;;;;;;;16.87;56.94;100664.31;5123416;28;20513;-65
2022/07/16 04:04:28;;;;;;;2.83;2.27;;;;;;;16.99;56.83;100656.66;5125019;28;20454;-65
2022/07/16 04:06:55;;;;;;;3.37;2.00;;;;;;;17.05;56.30;100657.84;5123057;28;21058;-66
2022/07/16 04:09:22;;;;;;;3.83;2.00;;;;;;;16.99;56.68;100664.75;5124773;28;20414;-66
2022/07/16 04:11:48;;;;;;;6.77;2.23;;;;;;;17.01;56.79;100653.78;5123849;28;20477;-66
2022/07/16 04:14:15;;;;;;;2.80;1.90;;;;;;;17.02;56.93;100667.13;5123880;28;20519;-66
2022/07/16 04:16:43;;;;;;;4.60;2.50;;;;;;;17.12;56.11;100658.84;5122754;28;21092;-66
2022/07/16 04:19:10;;;;;;;4.40;2.37;;;;;;;17.13;56.12;100669.47;5124283;28;20468;-66
2022/07/16 04:21:36;;;;;;;2.10;1.90;;;;;;;17.24;56.55;100670.97;5123970;28;20476;-67
2022/07/16 04:24:03;;;;;;;5.27;2.40;;;;;;;16.98;56.16;100681.13;5124275;28;20482;-66
2022/07/16 04:26:30;;;;;;;3.63;2.43;;;;;;;17.16;56.11;100678.25;5123611;28;20493;-66
2022/07/16 04:28:57;;;;;;;4.00;2.10;;;;;;;17.18;56.19;100677.03;5124253;28;20469;-66
2022/07/16 04:31:24;;;;;;;4.67;2.53;;;;;;;17.11;56.01;100681.47;5123129;28;20548;-66
2022/07/16 04:33:52;;;;;;;2.70;2.40;;;;;;;17.29;55.60;100673.97;5123843;28;20485;-66
2022/07/16 04:36:19;;;;;;;3.80;2.77;;;;;;;17.12;55.89;100688.56;5123421;28;20481;-66
2022/07/16 04:38:45;;;;;;;4.60;2.30;;;;;;;17.08;56.27;100685.38;5123580;28;20528;-66
2022/07/16 04:41:12;;;;;;;3.10;1.90;;;;;;;17.16;56.11;100684.47;5123278;28;20546;-65
2022/07/16 04:43:40;;;;;;;3.10;1.80;;;;;;;17.26;56.19;100689.69;5123625;28;20450;-66
2022/07/16 04:46:06;;;;;;;4.20;2.27;;;;;;;17.54;55.74;100698.22;5122057;28;20478;-66
2022/07/16 04:48:33;;;;;;;3.60;2.17;;;;;;;17.26;57.59;100701.34;5124249;28;21032;-66
2022/07/16 04:51:01;;;;;;;4.03;2.50;;;;;;;17.11;58.11;100714.72;5122294;28;20498;-66
2022/07/16 04:53:28;;;;;;;4.77;3.07;;;;;;;16.61;63.65;100723.00;5123430;28;20489;-66
2022/07/16 04:55:55;;;;;;;6.30;3.50;;;;;;;16.44;67.14;100724.84;5122894;28;20478;-66
2022/07/16 04:58:21;;;;;;;5.10;4.10;;;;;;;16.35;68.91;100721.28;5123280;28;20438;-66
2022/07/16 05:00:48;;;;;;;4.20;3.80;;;;;;;16.18;70.19;100723.16;5122748;28;20492;-65
2022/07/16 05:03:15;;;;;;;5.00;4.43;;;;;;;15.96;70.86;100720.03;5123493;28;20450;-66
2022/07/16 05:05:42;;;;;;;5.57;4.30;;;;;;;16.09;71.57;100734.91;5122227;28;20473;-66
2022/07/16 05:08:10;;;;;;;6.20;4.20;;;;;;;16.00;72.07;100737.59;5123190;28;20931;-66
2022/07/16 05:10:37;;;;;;;6.63;4.40;;;;;;;15.63;74.19;100751.41;5122887;28;20523;-66
2022/07/16 05:13:03;;;;;;;5.17;4.67;;;;;;;15.46;76.62;100736.16;5122814;28;20489;-64
2022/07/16 05:15:31;;;;;;;5.83;4.77;;;;;;;15.33;78.36;100747.34;5122088;28;20472;-65
2022/07/16 05:17:58;;;;;;;7.50;5.53;;;;;;;15.62;78.08;100736.22;5122781;28;20426;-66
2022/07/16 05:20:24;;;;;;;5.93;4.73;;;;;;;15.70;77.52;100743.50;5122261;28;20454;-65
2022/07/16 05:22:51;;;;;;;6.20;5.50;;;;;;;15.49;79.76;100738.53;5122637;28;20442;-66
2022/07/16 05:25:19;;;;;;;6.00;5.33;;;;;;;15.52;78.93;100743.59;5122470;28;20992;-65
2022/07/16 05:27:46;;;;;;;6.70;5.70;;;;;;;15.46;79.88;100744.25;5122964;28;20483;-66
2022/07/16 05:30:12;;;;;;;8.83;5.60;;;;;;;15.75;79.57;100742.06;5122461;28;20454;-66
2022/07/16 05:32:39;;;;;;;6.50;5.90;;;;;;;15.93;78.78;100744.63;5121584;28;21070;-65
2022/07/16 05:35:07;;;;;;;8.97;6.60;;;;;;;15.61;79.17;100751.56;5122478;28;20473;-65
2022/07/16 05:37:33;;;;;;;6.20;5.60;;;;;;;15.66;79.37;100755.59;5122140;28;20469;-65
2022/07/16 05:40:00;;;;;;;7.10;5.63;;;;;;;15.75;79.35;100757.38;5122476;28;20437;-65
2022/07/16 05:42:28;;;;;;;6.10;5.50;;;;;;;16.06;78.67;100751.41;5121702;28;20494;-65
2022/07/16 05:44:55;;;;;;;8.93;4.97;;;;;;;16.08;78.86;100752.94;5122376;28;20466;-65
2022/07/16 05:47:22;;;;;;;7.93;5.33;;;;;;;16.54;77.31;100755.22;5120755;28;21012;-66
2022/07/16 05:49:48;;;;;;;8.03;5.90;;;;;;;16.71;75.57;100767.72;5122528;28;20430;-66
2022/07/16 05:52:15;;;;;;;5.80;4.67;;;;;;;17.74;72.31;100765.38;5121872;28;20883;-65
2022/07/16 05:54:41;;;;;;;9.50;5.70;;;;;;;18.34;70.71;100753.94;5122211;28;20866;-66
2022/07/16 05:57:08;;;;;;;5.17;4.67;;;;;;;18.32;69.66;100756.00;5121817;28;20489;-66
2022/07/16 05:59:36;;;;;;;6.20;4.60;;;;;;;18.59;68.72;100751.94;5122861;28;20418;-67
2022/07/16 06:02:03;;;;;;;6.53;4.37;;;;;;;18.95;68.09;100745.88;5120889;28;20500;-66
2022/07/16 06:04:30;;;;;;;4.80;3.80;;;;;;;19.49;65.53;100761.09;5122090;28;20464;-66
2022/07/16 06:06:57;;;;;;;5.30;4.30;;;;;;;18.42;68.40;100762.03;5121504;28;20478;-66
2022/07/16 06:09:23;;;;;;;4.20;3.83;;;;;;;18.99;67.70;100768.03;5122508;28;20434;-66
2022/07/16 06:11:50;;;;;;;5.10;4.30;;;;;;;20.27;64.42;100764.19;5121468;28;20531;-66
2022/07/16 06:14:16;;;;;;;4.20;3.80;;;;;;;20.56;62.16;100765.13;5122443;28;20452;-66
2022/07/16 06:16:45;;;;;;;5.40;3.50;;;;;;;20.53;61.69;100767.41;5120502;28;20501;-66
2022/07/16 06:19:11;;;;;;;5.37;3.93;;;;;;;20.41;61.42;100772.50;5121863;28;20430;-66
2022/07/16 06:21:38;;;;;;;6.93;3.50;;;;;;;20.32;62.14;100779.94;5120820;28;20504;-66
2022/07/16 06:24:05;;;;;;;3.93;3.10;;;;;;;20.11;62.22;100778.84;5121606;28;20478;-66
2022/07/16 06:26:32;;;;;;;4.07;3.30;;;;;;;20.10;63.14;100779.03;5120890;28;20470;-67
2022/07/16 06:28:59;;;;;;;3.30;3.00;;;;;;;19.62;64.10;100778.59;5121760;28;20830;-66
2022/07/16 06:31:25;;;;;;;4.17;2.87;;;;;;;19.99;62.84;100784.97;5120352;28;20492;-66
2022/07/16 06:33:53;;;;;;;3.10;2.43;;;;;;;20.24;61.47;100786.31;5121295;28;20493;-66
2022/07/16 06:36:20;;;;;;;3.77;2.67;;;;;;;21.36;57.20;100792.19;5120551;28;20531;-66
2022/07/16 06:38:47;;;;;;;5.93;2.90;;;;;;;22.69;53.16;100783.81;5120857;28;20521;-66
2022/07/16 06:41:14;;;;;;;4.00;2.20;;;;;;;22.42;53.35;100794.66;5120759;28;20478;-66
2022/07/16 06:43:40;;;;;;;3.80;2.00;;;;;;;23.53;49.30;100786.97;5121253;28;20472;-67
2022/07/16 06:46:07;;;;;;;8.47;2.80;;;;;;;23.99;48.39;100795.06;5119617;28;20531;-65
2022/07/16 06:48:34;;;;;;;2.93;1.70;;;;;;;24.87;46.51;100787.22;5121306;28;20430;-65
2022/07/16 06:51:02;;;;;;;3.40;1.70;;;;;;;24.95;46.20;100786.97;5120413;28;20474;-65
2022/07/16 06:53:29;;;;;;;2.23;1.53;;;;;;;26.43;42.12;100784.31;5120806;28;20497;-66
2022/07/16 06:55:56;;;;;;;2.37;1.77;;;;;;;25.60;43.08;100793.97;5119747;28;20474;-66
2022/07/16 06:58:23;;;;;;;3.57;1.93;;;;;;;25.53;43.53;100797.59;5121316;28;20437;-66
2022/07/16 07:00:49;;;;;;;3.00;1.50;;;;;;;25.22;43.10;100801.22;5120373;28;20966;-66
2022/07/16 07:03:16;;;;;;;2.73;1.70;;;;;;;24.23;45.46;100807.16;5121284;28;20528;-65
2022/07/16 07:05:43;;;;;;;3.03;1.60;;;;;;;25.60;42.70;100815.88;5120753;28;20470;-66
2022/07/16 07:08:11;;;;;;;2.30;1.47;;;;;;;25.17;43.43;100810.13;5120781;28;20454;-66
2022/07/16 07:10:38;;;;;;;4.23;1.40;;;;;;;26.37;38.53;100809.91;5120696;28;21066;-66
2022/07/16 07:13:05;;;;;;;2.00;1.10;;;;;;;26.37;38.92;100819.00;5121267;28;20597;-65
2022/07/16 07:15:31;;;;;;;2.50;1.23;;;;;;;27.72;36.60;100805.63;5120586;28;20466;-66
2022/07/16 07:17:58;;;;;;;2.57;1.13;;;;;;;28.06;35.30;100811.34;5119811;28;20450;-66
2022/07/16 07:20:25;;;;;;;2.47;1.20;;;;;;;29.26;33.48;100805.03;5120324;28;20434;-66
2022/07/16 07:22:52;;;;;;;2.23;1.20;;;;;;;27.25;36.18;100808.38;5120589;28;20935;-66
2022/07/16 07:25:20;;;;;;;2.60;1.07;;;;;;;27.76;35.81;100817.00;5120046;28;20446;-66
2022/07/16 07:27:46;;;;;;;2.50;1.30;;;;;;;25.25;40.14;100827.34;5120590;28;20453;-66
2022/07/16 07:30:13;;;;;;;2.60;1.30;;;;;;;23.58;43.99;100826.22;5120277;28;20441;-66
2022/07/16 07:32:40;;;;;;;3.40;1.27;;;;;;;22.96;44.66;100828.31;5119970;28;20498;-66
2022/07/16 07:35:08;;;;;;;3.63;1.00;;;;;;;22.82;45.06;100827.44;5120027;28;20548;-65
2022/07/16 07:37:35;;;;;;;1.93;1.30;;;;;;;22.18;46.56;100837.69;5120252;28;20534;-66
2022/07/16 07:40:02;;;;;;;2.93;1.00;;;;;;;22.38;46.80;100828.81;5120969;28;20435;-66
2022/07/16 07:42:31;;;;;;;2.40;1.30;;;;;;;21.94;48.57;100836.34;5120213;28;20470;-66
2022/07/16 07:44:57;;;;;;;1.80;1.13;;;;;;;21.84;49.27;100838.59;5120447;28;20437;-65
2022/07/16 07:47:24;;;;;;;2.40;1.60;;;;;;;22.37;48.07;100829.84;5119069;28;20490;-65
2022/07/16 07:49:51;;;;;;;1.60;1.20;;;;;;;25.07;41.75;100839.91;5120846;28;20430;-66
2022/07/16 07:52:18;;;;;;;2.83;1.43;;;;;;;24.74;41.58;100832.75;5119773;28;21005;-66
2022/07/16 07:54:44;;;;;;;1.77;0.80;;;;;;;25.26;40.46;100840.81;5120134;28;20446;-66
2022/07/16 07:57:11;;;;;;;1.97;1.20;;;;;;;23.56;43.01;100849.31;5119956;28;20466;-65
2022/07/16 07:59:39;;;;;;;2.73;1.20;;;;;;;23.33;42.85;100845.13;5120777;28;20462;-65
2022/07/16 08:02:06;;;;;;;2.53;1.13;;;;;;;23.13;43.43;100845.97;5119435;28;20477;-66
2022/07/16 08:04:34;;;;;;;3.20;1.53;;;;;;;22.50;44.47;100840.81;5120533;28;20453;-65
2022/07/16 08:07:00;;;;;;;4.73;1.57;;;;;;;21.78;46.35;100847.53;5119507;28;20480;-66
2022/07/16 08:09:27;;;;;;;2.80;1.20;;;;;;;24.60;40.78;100850.31;5120535;28;20862;-65
2022/07/16 08:11:54;;;;;;;3.13;1.40;;;;;;;24.46;40.58;100851.38;5119712;28;20481;-66
2022/07/16 08:14:20;;;;;;;3.93;1.10;;;;;;;25.45;39.01;100844.44;5119734;28;20518;-66
2022/07/16 08:16:48;;;;;;;1.50;1.10;;;;;;;24.63;41.17;100847.09;5118790;28;20527;-66
2022/07/16 08:19:15;;;;;;;2.07;1.20;;;;;;;24.08;42.78;100857.63;5120510;28;20851;-66
2022/07/16 08:21:42;;;;;;;2.23;1.13;;;;;;;22.80;44.79;100858.69;5119609;28;20477;-66
2022/07/16 08:26:58;;;;;;;2.17;1.37;;;;;;;22.56;43.69;100863.66;5044987;28;20604;-65
2022/07/16 08:29:25;;;;;;;2.70;1.27;;;;;;;24.78;39.89;100869.53;5124153;28;20426;-65
2022/07/16 08:31:53;;;;;;;5.13;1.53;;;;;;;26.82;36.28;100878.09;5123322;28;20553;-65
2022/07/16 08:34:22;;;;;;;4.27;1.60;;;;;;;26.89;35.34;100865.13;5123269;28;21004;-66
2022/07/16 08:36:49;;;;;;;1.57;0.80;;;;;;;26.97;35.89;100873.00;5122950;28;20477;-65
2022/07/16 08:39:16;;;;;;;2.93;1.13;;;;;;;25.86;37.32;100877.75;5124034;28;20426;-66
2022/07/16 08:41:43;;;;;;;2.67;1.20;;;;;;;23.42;41.33;100875.78;5123019;28;20474;-65
2022/07/16 08:44:10;;;;;;;2.50;1.27;;;;;;;21.82;45.19;100886.91;5123661;28;20471;-65
2022/07/16 08:46:38;;;;;;;3.10;1.50;;;;;;;21.49;46.36;100892.13;5121701;28;20469;-65
2022/07/16 08:49:06;;;;;;;6.17;1.13;;;;;;;23.54;41.88;100885.03;5123813;28;20833;-66
2022/07/16 08:51:34;;;;;;;3.17;1.20;;;;;;;25.56;37.51;100886.69;5123101;28;20501;-66
2022/07/16 08:54:06;;;;;;;2.13;1.40;;;;;;;27.74;34.66;100887.81;5123305;28;20485;-66
2022/07/16 08:56:34;;;;;;;2.70;1.10;;;;;;;27.95;32.48;100897.41;5122673;28;20505;-66
2022/07/16 08:59:02;;;;;;;2.70;1.00;;;;;;;29.11;28.68;100890.94;5123936;28;20427;-66
2022/07/16 09:01:29;;;;;;;3.47;0.90;;;;;;;29.56;27.36;100898.31;5122487;28;20523;-66
2022/07/16 09:03:57;;;;;;;2.40;1.13;;;;;;;27.89;30.22;100888.19;5123327;28;20450;-66
2022/07/16 09:06:26;;;;;;;3.77;1.17;;;;;;;29.65;27.64;100896.81;5122247;28;20481;-66
2022/07/16 09:08:52;;;;;;;3.73;1.07;;;;;;;30.75;26.37;100893.34;5123382;28;20505;-65
2022/07/16 09:11:20;;;;;;;4.03;1.57;;;;;;;29.83;27.60;100904.00;5122704;28;20849;-65
2022/07/16 09:14:01;;;;;;;3.20;1.40;;;;;;;30.12;26.76;100906.63;5122903;28;20914;-65
2022/07/16 09:16:29;;;;;;;3.10;1.27;;;;;;;28.77;28.74;100914.81;5121152;28;20507;-65
2022/07/16 09:19:02;;;;;;;2.47;1.10;;;;;;;26.03;33.12;100913.66;5123408;28;20426;-65
2022/07/16 09:21:31;;;;;;;4.60;1.23;;;;;;;24.86;35.75;100914.09;5122387;28;20474;-66
2022/07/16 09:23:57;;;;;;;4.77;1.50;;;;;;;22.95;38.87;100924.81;5122809;28;20442;-65
2022/07/16 09:26:25;;;;;;;6.30;1.40;;;;;;;21.78;41.58;100942.81;5121928;28;20474;-65
2022/07/16 09:28:52;;;;;;;2.90;1.00;;;;;;;23.37;38.90;100932.88;5122934;28;20430;-65
2022/07/16 09:31:34;;;;;;;2.93;1.10;;;;;;;26.71;33.71;100942.81;5121681;28;21096;-65
2022/07/16 09:34:02;;;;;;;4.10;1.00;;;;;;;27.58;30.80;100927.84;5120927;28;20594;-65
2022/07/16 09:36:29;;;;;;;3.27;1.10;;;;;;;27.71;31.24;100930.38;5119786;28;20493;-66
2022/07/16 09:38:57;;;;;;;1.83;1.00;;;;;;;28.49;29.31;100928.28;5120942;28;20426;-65
2022/07/16 09:41:23;;;;;;;3.13;0.90;;;;;;;28.65;29.70;100939.63;5121652;28;20507;-65
2022/07/16 09:43:51;;;;;;;3.20;1.30;;;;;;;27.99;29.47;100937.09;5121212;28;20438;-66
2022/07/16 09:46:20;;;;;;;1.90;0.90;;;;;;;27.49;31.11;100934.75;5120281;28;20473;-65
2022/07/16 09:48:47;;;;;;;2.27;0.77;;;;;;;25.40;32.43;100931.88;5121812;28;20427;-66
2022/07/16 09:51:16;;;;;;;3.10;0.83;;;;;;;24.66;33.81;100936.91;5120496;28;20474;-65
2022/07/16 09:53:44;;;;;;;2.20;1.17;;;;;;;23.88;36.72;100945.91;5121570;28;20509;-65
2022/07/16 09:56:14;;;;;;;4.20;1.03;;;;;;;24.23;36.35;100946.50;5121152;28;20483;-65
2022/07/16 09:58:40;;;;;;;8.37;1.10;;;;;;;23.92;37.35;100949.06;5120713;28;21051;-65
2022/07/16 10:01:07;;;;;;;3.43;1.20;;;;;;;24.32;36.63;100952.56;5120383;28;20474;-65
2022/07/16 10:03:35;;;;;;;3.97;1.20;;;;;;;24.95;35.29;100953.81;5121357;28;20499;-65
2022/07/16 10:06:01;;;;;;;5.13;1.17;;;;;;;27.08;32.38;100961.09;5119769;28;20924;-65
2022/07/16 10:08:28;;;;;;;3.77;1.30;;;;;;;27.69;30.45;100957.25;5121435;28;20450;-65
2022/07/16 10:10:55;;;;;;;2.03;0.90;;;;;;;28.47;29.10;100952.44;5121068;28;20550;-65
2022/07/16 10:13:26;;;;;;;4.20;1.03;;;;;;;28.23;29.19;100954.41;5120343;28;20481;-65
2022/07/16 10:15:53;;;;;;;9.47;1.70;;;;;;;26.81;31.43;100964.22;5120044;28;20488;-65
2022/07/16 10:18:35;;;;;;;6.93;1.00;;;;;;;24.02;35.57;100968.59;5120781;28;20466;-65
2022/07/16 10:21:06;;;;;;;3.33;1.17;;;;;;;22.95;38.08;100976.63;5119905;28;20500;-65
2022/07/16 10:23:34;;;;;;;3.47;1.30;;;;;;;23.50;38.02;100980.13;5121283;28;20446;-65
2022/07/16 10:26:04;;;;;;;5.60;1.33;;;;;;;25.34;34.96;100971.91;5120270;28;20481;-65
2022/07/16 10:28:45;;;;;;;2.60;1.13;;;;;;;24.39;36.86;100977.13;5120519;28;20458;-65
2022/07/16 10:31:31;;;;;;;5.00;1.77;;;;;;;21.86;41.94;100985.38;5120240;28;20488;-64
2022/07/16 10:34:37;;;;;;;2.83;1.00;;;;;;;22.74;41.46;101002.09;5120076;28;20509;-65
2022/07/16 10:37:05;;;;;;;6.33;1.30;;;;;;;24.01;37.65;100992.34;5120225;28;20508;-65
2022/07/16 10:39:32;;;;;;;2.13;1.10;;;;;;;23.73;37.36;100999.88;5121120;28;20415;-65
2022/07/16 10:42:01;;;;;;;6.23;1.47;;;;;;;25.36;34.68;101004.53;5119437;28;20477;-65
2022/07/16 10:44:46;;;;;;;4.67;1.13;;;;;;;26.58;32.41;101004.13;5120841;28;20491;-65
2022/07/16 10:47:14;;;;;;;3.37;1.10;;;;;;;27.02;30.73;101006.78;5119089;28;20526;-65
2022/07/16 10:49:41;;;;;;;2.90;1.00;;;;;;;28.67;29.78;101003.50;5120050;28;20422;-65
2022/07/16 10:52:09;;;;;;;7.60;1.30;;;;;;;28.59;28.74;101003.88;5119815;28;20482;-65
2022/07/16 10:54:37;;;;;;;4.30;1.23;;;;;;;26.43;31.73;101011.91;5120497;28;20505;-65
2022/07/16 10:57:05;;;;;;;13.70;1.70;;;;;;;24.68;33.93;101025.03;5119190;28;20469;-65
2022/07/16 10:59:34;;;;;;;3.23;0.77;;;;;;;25.86;32.27;101015.53;5120400;28;20462;-65
2022/07/16 11:02:03;;;;;;;4.67;1.10;;;;;;;25.78;32.31;101023.19;5119511;28;20500;-65
2022/07/16 11:04:32;;;;;;;4.30;1.10;;;;;;;24.66;34.34;101031.78;5120257;28;20499;-65
2022/07/16 11:07:00;;;;;;;4.50;1.03;;;;;;;23.87;35.68;101035.19;5119880;28;20481;-65
2022/07/16 11:09:28;;;;;;;5.27;1.30;;;;;;;23.80;35.34;101028.88;5120692;28;20438;-66
2022/07/16 11:11:56;;;;;;;5.00;0.97;;;;;;;25.26;32.18;101031.53;5119116;28;20474;-66
2022/07/16 11:14:29;;;;;;;5.83;1.37;;;;;;;25.65;31.00;101038.66;5120321;28;20512;-66
2022/07/16 11:16:56;;;;;;;5.40;1.63;;;;;;;25.14;31.57;101034.94;5118358;28;20573;-67
2022/07/16 11:19:25;;;;;;;1.97;0.90;;;;;;;25.77;31.25;101040.72;5119701;28;20790;-67
2022/07/16 11:21:53;;;;;;;2.40;0.90;;;;;;;24.99;32.30;101037.94;5119672;28;20473;-67
2022/07/16 11:24:20;;;;;;;6.67;0.83;;;;;;;26.12;30.34;101041.91;5120093;28;20445;-67
2022/07/16 11:26:47;;;;;;;3.90;1.17;;;;;;;26.16;30.98;101044.19;5118839;28;20928;-67
2022/07/16 11:29:14;;;;;;;3.60;1.03;;;;;;;26.96;29.52;101046.13;5120216;28;20446;-67
2022/07/16 11:31:41;;;;;;;3.03;1.17;;;;;;;25.81;30.43;101045.50;5118866;28;20535;-67
2022/07/16 11:34:09;;;;;;;3.00;0.80;;;;;;;24.14;32.44;101040.66;5119426;28;20486;-66